Wetterverlauf

Letzte Wetterlage 24.07.2014 16:23
Wetterdiagramm
Tabellarische Darstellung
Datum Temperatur Windchill Feuchte Luftdruck Windrichtung Windstärke Niederschlag
24.07.2014 16:23 24,9 °C 24,3 °C 47 % 1012,7 hPa 315 2.4 0,00 mm
24.07.2014 16:13 25,0 °C 25,0 °C 45 % 1012,5 hPa 90 2.0 0,00 mm
24.07.2014 16:03 25,1 °C 25,1 °C 47 % 1012,6 hPa 0 1.7 0,00 mm
24.07.2014 15:48 24,6 °C 24,6 °C 49 % 1012,6 hPa 45 0.3 0,00 mm
24.07.2014 15:38 24,0 °C 24,0 °C 51 % 1012,8 hPa 45 1.7 0,00 mm
24.07.2014 15:28 23,8 °C 23,8 °C 51 % 1012,9 hPa 0 1.0 0,00 mm
24.07.2014 15:18 24,3 °C 24,3 °C 48 % 1012,9 hPa 0 0.3 0,00 mm
24.07.2014 15:08 24,4 °C 24,4 °C 47 % 1013,1 hPa 45 1.4 0,00 mm
24.07.2014 14:58 24,5 °C 24,5 °C 48 % 1013,1 hPa 90 2.0 0,00 mm
24.07.2014 14:48 24,2 °C 24,2 °C 51 % 1013,1 hPa 90 1.0 0,00 mm
24.07.2014 14:38 24,0 °C 24,0 °C 50 % 1013,2 hPa 90 1.4 0,00 mm
24.07.2014 14:28 24,4 °C 24,4 °C 49 % 1013,2 hPa 270 0.7 0,00 mm
24.07.2014 14:18 24,8 °C 24,8 °C 47 % 1013,2 hPa 90 2.0 0,00 mm
24.07.2014 14:03 25,2 °C 25,2 °C 48 % 1013,1 hPa 45 1.0 0,00 mm
24.07.2014 13:58 25,2 °C 25,2 °C 48 % 1013,1 hPa 0 0.7 0,00 mm
24.07.2014 13:53 25,2 °C 25,2 °C 49 % 1013,2 hPa 45 2.0 0,00 mm
24.07.2014 13:43 24,9 °C 24,9 °C 51 % 1013,2 hPa 315 0.0 0,00 mm
24.07.2014 13:33 24,5 °C 24,5 °C 50 % 1013,5 hPa 45 1.4 0,00 mm
24.07.2014 13:23 24,6 °C 24,6 °C 48 % 1013,3 hPa 315 1.4 0,00 mm
24.07.2014 13:13 25,0 °C 25,0 °C 49 % 1013,3 hPa 45 0.3 0,00 mm
24.07.2014 13:03 24,5 °C 24,5 °C 53 % 1013,5 hPa 180 0.7 0,00 mm
24.07.2014 12:58 24,2 °C 24,2 °C 54 % 1013,5 hPa 270 0.7 0,00 mm
24.07.2014 12:53 23,9 °C 23,9 °C 55 % 1013,4 hPa 135 1.4 0,00 mm
24.07.2014 12:43 24,0 °C 24,0 °C 52 % 1013,5 hPa 45 1.0 0,00 mm
24.07.2014 12:33 23,9 °C 23,9 °C 54 % 1013,6 hPa 0 0.7 0,00 mm
Empfehlen Sie wetter.com
| Mehr
Neue Wetterwarnung

Neue Niederschlagsmeldung
Neue Meldung
Regen Liveticker
    sehr starker Regen/Gewitter
    starker Regen/Gewitter
    mäßiger bis starker Regen
    mäßiger Regen
    leichter bis mäßiger Regen
    kein Regen